Terminal Aerodrome Forecast
Issued by NWS

Home | Current Version | Previous Version | Text Only | Print | Product List | Glossary On
Versions: 1 2 3 4 5 6 7 8 9 10 11 12 13 14 15
080
FTUS41 KLWX 292343
TAFMTN
TAF
KMTN 292343Z 3000/3024 30004KT P6SM VCSH SCT060 BKN250
     FM300300 02004KT P6SM FEW045 SCT200
     FM300900 08008KT P6SM BKN025
      AMD NOT SKED 3002/3012=

USA.gov is the U.S. government's official web portal to all federal, state and local government web resources and services.